Time;durP1;ratioP1;P1;durP2;ratioP2;P2;SDS_P1;SDS_P2;PMS_P1;PMS_P2;Temp;Humidity;BMP_temperature;BMP_pressure;BME280_temperature;BME280_humidity;BME280_pressure;Samples;Min_cycle;Max_cycle;Signal;HPM_P1;HPM_P2
2022/08/12 00:43:25;;;;;;;8.20;4.03;;;18.80;99.90;;;;;;5032858;28;19925;-67
2022/08/12 00:48:37;;;;;;;7.45;4.07;;;18.60;99.90;;;;;;5040933;28;20044;-67
2022/08/12 00:51:04;;;;;;;5.60;3.97;;;18.50;99.90;;;;;;5054039;28;20032;-67
2022/08/12 00:53:30;;;;;;;5.20;4.03;;;18.60;99.90;;;;;;5052525;28;20367;-67
2022/08/12 00:55:58;;;;;;;6.18;4.72;;;18.60;99.90;;;;;;5043286;28;20407;-67
2022/08/12 00:58:29;;;;;;;5.30;3.72;;;18.50;99.90;;;;;;5033764;28;20107;-67
2022/08/12 01:01:00;;;;;;;5.30;4.05;;;18.50;99.90;;;;;;5032778;28;20041;-67
2022/08/12 01:11:27;;;;;;;6.25;4.07;;;18.50;99.90;;;;;;5034190;28;20045;-67
2022/08/12 01:11:51;;;;;;;11.95;4.68;;;18.40;99.90;;;;;;5032427;28;20045;-67
2022/08/12 01:14:19;;;;;;;6.80;4.55;;;18.40;99.90;;;;;;5033863;28;20037;-67
2022/08/12 01:16:47;;;;;;;4.75;4.03;;;18.30;99.90;;;;;;5032102;28;20041;-67
2022/08/12 01:19:13;;;;;;;6.10;4.28;;;18.30;99.90;;;;;;5032347;28;20048;-67
2022/08/12 01:21:55;;;;;;;5.63;4.00;;;18.20;99.90;;;;;;5044860;28;20044;-67
2022/08/12 01:24:50;;;;;;;6.00;4.38;;;18.40;99.90;;;;;;5053608;28;20045;-67
2022/08/12 01:27:19;;;;;;;6.72;4.55;;;18.10;99.90;;;;;;5050858;28;20511;-67
2022/08/12 01:29:47;;;;;;;4.03;3.63;;;18.10;99.90;;;;;;5033566;28;20052;-67
2022/08/12 01:32:14;;;;;;;5.47;4.65;;;18.10;99.90;;;;;;5032221;28;20408;-67
2022/08/12 01:34:53;;;;;;;7.25;5.28;;;18.10;99.90;;;;;;5033716;28;20032;-67
2022/08/12 01:37:23;;;;;;;9.02;4.70;;;17.90;99.90;;;;;;5033358;28;20060;-67
2022/08/12 01:39:55;;;;;;;6.85;4.82;;;17.90;99.90;;;;;;5032958;28;20403;-67
2022/08/12 01:42:22;;;;;;;5.40;4.85;;;17.70;99.90;;;;;;5033231;28;20057;-67
2022/08/12 01:44:49;;;;;;;6.53;5.07;;;17.70;99.90;;;;;;5033480;28;20415;-67
2022/08/12 01:47:41;;;;;;;6.82;4.90;;;17.80;99.90;;;;;;5034150;28;20514;-67
2022/08/12 01:50:20;;;;;;;9.93;5.07;;;17.90;99.90;;;;;;5031927;28;20052;-67
2022/08/12 01:53:09;;;;;;;14.45;5.55;;;17.80;99.90;;;;;;5032819;28;20499;-67
2022/08/12 01:55:37;;;;;;;9.48;5.03;;;17.70;99.90;;;;;;5033412;28;20399;-67
2022/08/12 01:58:26;;;;;;;6.95;4.45;;;17.70;99.90;;;;;;5032586;28;20436;-67
2022/08/12 02:00:57;;;;;;;7.13;4.90;;;17.90;99.90;;;;;;5043622;28;20124;-67
2022/08/12 02:12:42;;;;;;;10.68;5.18;;;17.60;99.90;;;;;;5031486;28;20124;-67
2022/08/12 02:15:11;;;;;;;6.63;5.65;;;17.40;99.90;;;;;;5032555;28;20411;-67
2022/08/12 02:18:11;;;;;;;6.57;5.32;;;17.70;99.90;;;;;;5032648;28;20175;-67
2022/08/12 02:20:51;;;;;;;8.43;5.85;;;17.40;99.90;;;;;;5035770;28;20382;-67
2022/08/12 02:23:19;;;;;;;8.20;5.85;;;17.50;99.90;;;;;;5052616;28;20045;-67
2022/08/12 02:25:46;;;;;;;7.07;5.18;;;17.40;99.90;;;;;;5034099;28;20053;-67
2022/08/12 02:28:12;;;;;;;8.00;5.70;;;17.40;99.90;;;;;;5031439;28;20057;-67
2022/08/12 02:30:38;;;;;;;6.43;5.20;;;17.60;99.90;;;;;;5036173;28;20479;-67
2022/08/12 02:33:05;;;;;;;12.25;5.57;;;17.40;99.90;;;;;;5060683;28;20124;-67
2022/08/12 02:35:34;;;;;;;6.88;5.43;;;17.30;99.90;;;;;;5031154;28;20048;-67
2022/08/12 02:38:04;;;;;;;10.27;5.43;;;17.50;99.90;;;;;;5032177;28;20041;-67
2022/08/12 02:40:30;;;;;;;7.22;5.65;;;17.40;99.90;;;;;;5014523;28;20124;-67
2022/08/12 02:43:33;;;;;;;9.30;5.95;;;17.40;99.90;;;;;;5030851;28;20109;-67
2022/08/12 02:46:10;;;;;;;8.30;5.40;;;17.20;99.90;;;;;;5034764;28;20060;-67
2022/08/12 02:48:48;;;;;;;7.32;6.20;;;17.40;99.90;;;;;;5032489;28;20087;-67
2022/08/12 02:51:19;;;;;;;8.40;5.43;;;17.40;99.90;;;;;;5032366;28;20365;-67
2022/08/12 02:53:45;;;;;;;7.18;5.18;;;17.50;99.90;;;;;;5032706;28;20041;-67
2022/08/12 02:56:11;;;;;;;6.95;5.68;;;17.10;99.90;;;;;;5032232;28;20053;-67
2022/08/12 02:58:39;;;;;;;11.30;5.80;;;17.20;99.90;;;;;;5032085;28;20049;-67
2022/08/12 03:01:09;;;;;;;10.05;6.82;;;17.20;99.90;;;;;;5040342;28;20134;-67
2022/08/12 03:03:36;;;;;;;9.88;6.40;;;17.00;99.90;;;;;;5031891;28;20943;-67
2022/08/12 03:06:07;;;;;;;8.68;6.38;;;16.70;99.90;;;;;;5032364;28;20045;-67
2022/08/12 03:08:42;;;;;;;10.45;6.57;;;16.80;99.90;;;;;;5032310;28;20120;-67
2022/08/12 03:11:35;;;;;;;9.18;6.38;;;16.70;99.90;;;;;;5032192;28;20381;-67
2022/08/12 03:14:01;;;;;;;9.18;6.63;;;16.60;99.90;;;;;;5032302;28;20056;-67
2022/08/12 03:16:31;;;;;;;6.95;5.53;;;16.70;99.90;;;;;;5031833;28;20550;-67
2022/08/12 03:18:57;;;;;;;9.65;6.22;;;16.90;99.90;;;;;;5031122;28;20053;-67
2022/08/12 03:21:26;;;;;;;8.30;6.13;;;16.80;99.90;;;;;;5039915;28;20087;-67
2022/08/12 03:23:54;;;;;;;15.50;7.80;;;16.90;99.90;;;;;;5049874;28;20408;-67
2022/08/12 03:26:24;;;;;;;7.25;5.57;;;16.90;99.90;;;;;;5031725;28;20033;-67
2022/08/12 03:28:55;;;;;;;7.50;5.55;;;16.80;99.90;;;;;;5030669;28;20057;-67
2022/08/12 03:31:28;;;;;;;7.57;6.35;;;16.80;99.90;;;;;;5030621;28;20040;-67
2022/08/12 03:33:58;;;;;;;12.35;6.63;;;16.70;99.90;;;;;;5032084;28;20044;-67
2022/08/12 03:36:27;;;;;;;9.52;6.13;;;16.70;99.90;;;;;;5031834;28;20149;-67
2022/08/12 03:41:56;;;;;;;8.75;6.15;;;16.80;99.90;;;;;;5033361;28;20487;-67
2022/08/12 04:01:39;;;;;;;;;;;16.90;99.90;;;;;;5034037;28;20460;-67
2022/08/12 04:04:07;;;;;;;8.30;6.72;;;16.70;99.90;;;;;;5034910;28;19921;-67
2022/08/12 04:06:38;;;;;;;9.75;6.63;;;16.70;99.90;;;;;;5035194;28;20040;-67
2022/08/12 04:09:04;;;;;;;10.18;6.75;;;16.80;99.90;;;;;;5035198;28;20399;-67
2022/08/12 04:14:19;;;;;;;6.97;5.60;;;16.50;99.90;;;;;;5043112;28;20049;-67
2022/08/12 04:16:47;;;;;;;9.25;6.75;;;16.50;99.90;;;;;;5034634;28;20049;-67
2022/08/12 04:19:14;;;;;;;9.80;7.53;;;16.50;99.90;;;;;;5033681;28;20403;-67
2022/08/12 04:21:40;;;;;;;8.18;6.50;;;16.50;99.90;;;;;;5046256;28;20083;-67
2022/08/12 04:24:06;;;;;;;9.77;6.28;;;16.60;99.90;;;;;;5036812;28;20435;-67
2022/08/12 04:26:34;;;;;;;7.55;5.88;;;16.60;99.90;;;;;;5034339;28;20037;-67
2022/08/12 04:29:00;;;;;;;9.30;6.72;;;16.60;99.90;;;;;;5037485;28;20124;-67
2022/08/12 04:31:34;;;;;;;9.73;6.50;;;16.40;99.90;;;;;;5033170;28;20475;-67
2022/08/12 04:34:01;;;;;;;11.17;7.30;;;16.60;99.90;;;;;;5049986;28;20040;-67
2022/08/12 04:36:28;;;;;;;12.52;6.80;;;16.50;99.90;;;;;;5046109;28;20049;-66
2022/08/12 04:38:55;;;;;;;11.93;8.35;;;16.60;99.90;;;;;;5033356;28;20053;-67
2022/08/12 04:41:22;;;;;;;10.23;6.90;;;16.60;99.90;;;;;;5033158;28;20045;-67
2022/08/12 04:43:48;;;;;;;8.60;5.95;;;16.70;99.90;;;;;;5034206;28;20518;-66
2022/08/12 04:46:14;;;;;;;10.60;5.72;;;16.80;99.90;;;;;;5035912;28;20037;-67
2022/08/12 04:48:40;;;;;;;7.88;6.50;;;16.70;99.90;;;;;;5033112;28;20034;-67
2022/08/12 04:51:06;;;;;;;7.30;6.10;;;16.80;99.90;;;;;;5034410;28;20492;-66
2022/08/12 04:53:32;;;;;;;9.63;5.97;;;16.80;99.90;;;;;;5044784;28;20037;-67
2022/08/12 04:55:59;;;;;;;10.43;6.00;;;16.70;99.90;;;;;;5032853;28;20041;-67
2022/08/12 04:58:26;;;;;;;8.35;5.82;;;16.80;99.90;;;;;;5032864;28;20128;-67
2022/08/12 05:00:52;;;;;;;7.05;5.07;;;16.80;99.90;;;;;;5032806;28;20119;-67
2022/08/12 05:03:17;;;;;;;7.13;6.03;;;16.90;99.90;;;;;;5033929;28;20069;-67
2022/08/12 05:05:43;;;;;;;9.85;6.18;;;16.90;99.90;;;;;;5033963;28;20471;-66
2022/08/12 05:08:15;;;;;;;9.35;5.97;;;16.80;99.90;;;;;;5033875;28;20048;-67
2022/08/12 05:10:43;;;;;;;10.02;6.47;;;16.90;99.90;;;;;;5032628;28;20160;-67
2022/08/12 05:13:13;;;;;;;8.70;5.93;;;16.70;99.90;;;;;;5032297;28;20040;-66
2022/08/12 05:15:41;;;;;;;14.45;6.65;;;17.10;99.90;;;;;;5034337;28;20045;-67
2022/08/12 05:18:07;;;;;;;10.82;6.22;;;17.00;99.90;;;;;;5015655;28;20045;-67
2022/08/12 05:20:33;;;;;;;9.18;6.00;;;16.90;99.90;;;;;;5034512;28;20403;-67
2022/08/12 05:23:10;;;;;;;9.98;6.80;;;17.10;99.90;;;;;;5045093;28;20128;-67
2022/08/12 05:25:36;;;;;;;8.93;7.53;;;17.20;99.90;;;;;;5032157;28;20492;-67
2022/08/12 05:28:06;;;;;;;8.57;6.80;;;17.10;99.90;;;;;;5032236;28;20092;-67
2022/08/12 05:30:33;;;;;;;7.95;6.18;;;17.10;99.90;;;;;;5033623;28;20037;-66
2022/08/12 05:33:04;;;;;;;7.80;6.25;;;17.10;99.90;;;;;;5033373;28;20037;-67
2022/08/12 05:35:30;;;;;;;11.57;6.82;;;17.10;99.90;;;;;;5033350;28;20034;-67
2022/08/12 05:40:40;;;;;;;11.23;6.43;;;17.30;99.90;;;;;;5039043;28;20424;-67
2022/08/12 05:43:06;;;;;;;10.75;7.15;;;17.40;99.90;;;;;;5033302;28;20030;-67
2022/08/12 05:45:32;;;;;;;10.95;7.22;;;17.40;99.90;;;;;;5033326;28;20045;-67
2022/08/12 05:47:58;;;;;;;7.45;6.03;;;17.60;99.90;;;;;;5039049;28;20545;-67
2022/08/12 05:50:24;;;;;;;7.47;5.60;;;18.60;99.90;;;;;;5051811;28;20384;-67
2022/08/12 05:52:51;;;;;;;9.88;5.47;;;19.10;99.90;;;;;;5035244;28;20143;-67
2022/08/12 05:55:18;;;;;;;10.82;4.32;;;19.80;99.90;;;;;;5031895;28;20053;-67
2022/08/12 05:57:47;;;;;;;6.65;3.63;;;20.90;99.90;;;;;;5033226;28;20049;-67
2022/08/12 06:00:15;;;;;;;6.03;3.30;;;20.80;99.90;;;;;;5046384;28;20477;-67
2022/08/12 06:02:41;;;;;;;6.88;3.67;;;21.00;99.90;;;;;;5045936;28;20052;-67
2022/08/12 06:05:09;;;;;;;7.70;4.32;;;21.00;99.90;;;;;;5023572;28;20037;-67
2022/08/12 06:07:44;;;;;;;5.70;3.45;;;21.40;99.90;;;;;;5033312;28;20092;-67
2022/08/12 06:10:10;;;;;;;5.00;2.95;;;22.00;99.90;;;;;;5048740;28;20033;-67
2022/08/12 06:12:36;;;;;;;5.03;2.70;;;22.80;99.90;;;;;;5032094;28;20037;-67
2022/08/12 06:15:03;;;;;;;4.63;2.67;;;23.40;99.90;;;;;;5032638;28;20099;-68
2022/08/12 06:17:29;;;;;;;8.45;2.75;;;24.40;99.90;;;;;;5039249;28;20111;-67
2022/08/12 06:19:57;;;;;;;5.15;2.47;;;25.00;99.90;;;;;;5050948;28;20037;-68
2022/08/12 06:22:23;;;;;;;5.28;2.63;;;25.70;99.90;;;;;;5048865;28;20069;-68
2022/08/12 06:24:48;;;;;;;5.07;2.03;;;28.00;99.90;;;;;;5032702;28;20396;-68
2022/08/12 06:27:16;;;;;;;3.80;2.42;;;26.70;99.90;;;;;;5032365;28;20037;-68
2022/08/12 06:29:43;;;;;;;5.05;2.05;;;27.20;99.90;;;;;;5042804;28;20062;-67
2022/08/12 06:32:08;;;;;;;8.70;2.63;;;27.80;99.90;;;;;;5040826;28;20037;-68
2022/08/12 06:34:35;;;;;;;8.30;1.77;;;28.10;99.90;;;;;;5036150;28;20048;-67
2022/08/12 06:37:01;;;;;;;3.20;1.70;;;28.50;99.90;;;;;;5032494;28;20551;-67
2022/08/12 06:39:26;;;;;;;4.18;1.90;;;30.40;99.90;;;;;;5030306;28;20045;-68
2022/08/12 06:44:38;;;;;;;4.28;1.40;;;29.20;99.90;;;;;;5040733;28;20053;-68
2022/08/12 06:47:04;;;;;;;5.28;1.35;;;29.80;99.90;;;;;;5040632;28;20056;-67
2022/08/12 06:49:34;;;;;;;3.72;1.40;;;29.90;99.90;;;;;;5043434;28;20491;-67
2022/08/12 06:51:59;;;;;;;4.13;1.42;;;30.20;99.90;;;;;;5037733;28;20053;-68
2022/08/12 06:54:25;;;;;;;2.15;1.25;;;30.50;99.90;;;;;;5031634;28;20029;-68
2022/08/12 06:56:51;;;;;;;4.18;1.50;;;31.00;99.90;;;;;;5038065;28;20120;-68
2022/08/12 06:59:19;;;;;;;7.35;1.65;;;31.40;99.90;;;;;;5051038;28;20419;-68
2022/08/12 07:01:45;;;;;;;4.60;1.17;;;31.00;99.90;;;;;;5051287;28;20045;-67
2022/08/12 07:04:13;;;;;;;5.07;1.25;;;31.30;99.90;;;;;;5049081;28;20507;-67
2022/08/12 07:06:39;;;;;;;5.43;1.70;;;31.30;99.90;;;;;;5048072;28;20120;-67
2022/08/12 07:09:06;;;;;;;4.35;1.17;;;31.90;99.90;;;;;;5041223;28;20061;-68
2022/08/12 07:11:32;;;;;;;3.80;1.40;;;32.10;99.90;;;;;;5036509;28;20091;-68
2022/08/12 07:14:00;;;;;;;4.78;1.42;;;29.30;99.90;;;;;;5038658;28;20040;-67
2022/08/12 07:16:50;;;;;;;7.22;1.35;;;29.60;99.90;;;;;;5042477;28;20403;-67
2022/08/12 07:19:13;;;;;;;4.00;1.45;;;27.90;99.90;;;;;;5049427;28;20047;-67
2022/08/12 07:21:38;;;;;;;3.63;1.00;;;27.00;99.90;;;;;;5051255;28;20167;-67
2022/08/12 07:24:04;;;;;;;4.50;1.45;;;26.60;99.90;;;;;;5052536;28;20037;-67
2022/08/12 07:26:29;;;;;;;7.13;1.50;;;26.30;99.90;;;;;;5038786;28;20068;-67
2022/08/12 07:28:55;;;;;;;5.25;1.35;;;25.80;99.90;;;;;;5042762;28;20514;-67
2022/08/12 07:31:21;;;;;;;4.07;1.58;;;25.50;99.90;;;;;;5053585;28;20033;-67
2022/08/12 07:33:48;;;;;;;5.47;1.30;;;25.20;99.90;;;;;;5055140;28;20503;-67
2022/08/12 07:36:14;;;;;;;4.82;1.38;;;25.10;99.90;;;;;;5053954;28;20056;-67
2022/08/12 07:38:47;;;;;;;5.55;1.38;;;25.10;99.90;;;;;;5054948;28;20399;-67
2022/08/12 07:41:21;;;;;;;2.60;1.40;;;25.30;99.90;;;;;;5054107;28;20122;-67
2022/08/12 07:43:50;;;;;;;5.40;1.67;;;25.00;99.90;;;;;;5055195;28;20086;-67
2022/08/12 07:46:19;;;;;;;4.32;1.30;;;25.10;99.90;;;;;;5053954;28;20072;-67
2022/08/12 07:48:48;;;;;;;7.20;1.98;;;25.10;99.90;;;;;;5055225;28;20048;-67
2022/08/12 07:51:15;;;;;;;4.80;1.38;;;25.10;99.90;;;;;;5054280;28;20051;-67
2022/08/12 07:53:40;;;;;;;3.15;1.20;;;24.90;99.90;;;;;;5053990;28;20037;-67
2022/08/12 07:56:10;;;;;;;5.95;1.40;;;25.30;99.90;;;;;;5054473;28;20119;-67
2022/08/12 07:58:39;;;;;;;3.95;1.33;;;25.20;99.90;;;;;;5053459;28;20060;-67
2022/08/12 08:01:14;;;;;;;4.05;1.30;;;24.80;99.90;;;;;;5054871;28;20057;-67
2022/08/12 08:04:54;;;;;;;5.13;1.38;;;25.70;99.90;;;;;;5053832;28;20051;-66
2022/08/12 08:06:27;;;;;;;4.65;1.45;;;25.30;99.90;;;;;;5053668;28;20048;-66
2022/08/12 08:08:56;;;;;;;5.40;1.38;;;25.30;99.90;;;;;;5053512;28;20044;-67
2022/08/12 08:14:09;;;;;;;4.03;1.35;;;25.10;99.90;;;;;;5054904;28;20052;-67
2022/08/12 08:16:39;;;;;;;5.25;1.83;;;26.50;99.90;;;;;;5053104;28;20037;-67
2022/08/12 08:19:06;;;;;;;3.67;1.30;;;25.40;99.90;;;;;;5040457;28;20040;-67
2022/08/12 08:21:34;;;;;;;6.20;1.83;;;25.40;99.90;;;;;;5046506;28;20041;-67
2022/08/12 08:24:15;;;;;;;5.32;1.80;;;25.60;99.90;;;;;;5048632;28;20132;-66
2022/08/12 08:26:42;;;;;;;5.78;1.38;;;25.60;99.90;;;;;;5034258;28;20041;-66
2022/08/12 08:29:11;;;;;;;4.95;1.38;;;25.50;99.90;;;;;;5051789;28;20037;-67
2022/08/12 08:31:42;;;;;;;5.47;1.52;;;25.60;99.90;;;;;;5053096;28;20112;-67
2022/08/12 08:34:09;;;;;;;4.15;1.55;;;25.60;99.90;;;;;;5051624;28;20128;-66
2022/08/12 08:36:35;;;;;;;6.93;1.80;;;26.30;99.90;;;;;;5052972;28;20045;-66
2022/08/12 08:39:00;;;;;;;3.63;1.50;;;25.70;99.90;;;;;;5051668;28;20037;-66
2022/08/12 08:44:10;;;;;;;;;;;25.80;99.90;;;;;;5052173;28;20052;-67
2022/08/12 08:46:36;;;;;;;6.40;1.40;;;25.90;99.90;;;;;;5048385;28;19916;-66
2022/08/12 08:49:03;;;;;;;8.07;1.92;;;26.00;99.90;;;;;;5045515;28;20430;-67
2022/08/12 08:51:30;;;;;;;4.07;1.45;;;25.70;99.90;;;;;;5052013;28;20084;-67
2022/08/12 08:53:55;;;;;;;4.55;1.58;;;26.20;99.90;;;;;;5052145;28;20045;-66
2022/08/12 08:56:21;;;;;;;5.05;1.70;;;26.30;99.90;;;;;;5050827;28;20041;-66
2022/08/12 08:58:48;;;;;;;3.38;1.70;;;28.40;99.90;;;;;;5050539;28;20470;-66
2022/08/12 09:01:20;;;;;;;2.80;1.13;;;26.60;99.90;;;;;;5052032;28;20037;-66
2022/08/12 09:03:46;;;;;;;4.47;1.30;;;26.50;99.90;;;;;;5047862;28;20042;-66
2022/08/12 09:06:13;;;;;;;6.72;1.73;;;26.50;99.90;;;;;;5049573;28;20048;-66
2022/08/12 09:08:43;;;;;;;4.47;1.60;;;26.80;99.90;;;;;;5052091;28;20505;-66
2022/08/12 09:13:53;;;;;;;5.13;1.80;;;27.00;99.90;;;;;;5051929;28;20049;-66
2022/08/12 09:16:19;;;;;;;4.85;1.10;;;27.10;99.90;;;;;;5050624;28;20376;-66
2022/08/12 09:18:46;;;;;;;4.55;1.60;;;27.40;99.90;;;;;;5041245;28;20045;-66
2022/08/12 09:21:12;;;;;;;4.57;1.40;;;27.90;99.90;;;;;;5052070;28;20063;-67
2022/08/12 09:23:38;;;;;;;3.22;1.65;;;27.20;99.90;;;;;;5042826;28;20121;-67
2022/08/12 09:26:04;;;;;;;3.30;1.38;;;27.30;99.90;;;;;;5049372;28;20491;-66
2022/08/12 09:28:32;;;;;;;3.63;1.50;;;27.50;99.90;;;;;;5051220;28;20040;-66
2022/08/12 09:30:58;;;;;;;5.35;1.30;;;27.70;99.90;;;;;;5051379;28;20052;-67
2022/08/12 09:33:32;;;;;;;3.03;1.13;;;27.60;99.90;;;;;;5053047;28;20176;-66
2022/08/12 09:35:59;;;;;;;2.85;1.40;;;27.50;99.90;;;;;;5052797;28;20470;-69
2022/08/12 09:38:27;;;;;;;5.28;1.40;;;29.50;99.90;;;;;;5052835;28;20434;-67
2022/08/12 09:40:53;;;;;;;5.53;1.40;;;29.20;99.90;;;;;;5051064;28;20546;-67
2022/08/12 09:46:02;;;;;;;3.55;1.48;;;29.00;99.90;;;;;;5048370;28;20037;-66
2022/08/12 09:48:29;;;;;;;5.70;1.27;;;29.60;99.90;;;;;;5052456;28;20037;-66
2022/08/12 09:50:54;;;;;;;2.72;1.20;;;28.20;99.90;;;;;;5051262;28;20098;-66
2022/08/12 09:53:23;;;;;;;2.42;1.10;;;28.30;99.90;;;;;;5052183;28;20479;-68
2022/08/12 09:55:57;;;;;;;2.75;1.17;;;28.30;99.90;;;;;;5052623;28;20041;-66
2022/08/12 09:58:28;;;;;;;2.60;1.00;;;28.20;99.90;;;;;;5049903;28;20052;-66
2022/08/12 10:01:03;;;;;;;3.00;1.27;;;28.60;99.90;;;;;;5044905;28;20124;-67
2022/08/12 10:03:31;;;;;;;4.50;1.05;;;28.60;98.40;;;;;;5052228;28;20037;-67
2022/08/12 10:05:58;;;;;;;7.43;1.20;;;28.90;97.90;;;;;;5052201;28;20045;-67
2022/08/12 10:08:31;;;;;;;5.05;1.40;;;28.80;98.70;;;;;;5050881;28;20032;-67
2022/08/12 10:13:45;;;;;;;3.17;1.45;;;28.90;98.40;;;;;;5051004;28;20041;-68
2022/08/12 10:16:27;;;;;;;4.60;1.10;;;30.50;99.90;;;;;;5048836;28;20029;-67
2022/08/12 10:19:01;;;;;;;3.70;1.17;;;28.80;98.70;;;;;;5049655;28;20071;-66
2022/08/12 10:21:35;;;;;;;4.37;1.30;;;29.10;98.40;;;;;;5052119;28;20037;-66
2022/08/12 10:24:03;;;;;;;6.30;1.20;;;29.80;99.00;;;;;;5050677;28;20044;-66
2022/08/12 10:31:59;;;;;;;4.35;1.00;;;29.40;96.80;;;;;;5048062;28;20036;-67
2022/08/12 10:34:25;;;;;;;2.38;1.00;;;29.60;97.10;;;;;;5051028;28;20094;-66
2022/08/12 10:36:54;;;;;;;5.55;1.25;;;29.70;98.00;;;;;;5047223;28;20041;-67
2022/08/12 10:39:21;;;;;;;1.98;1.13;;;30.80;98.50;;;;;;5041773;28;20046;-67
2022/08/12 10:44:32;;;;;;;3.17;0.90;;;31.50;97.90;;;;;;5034781;28;20045;-66
2022/08/12 10:46:58;;;;;;;6.50;1.38;;;31.50;98.30;;;;;;5036762;28;20381;-66
2022/08/12 10:49:33;;;;;;;5.28;1.67;;;31.10;97.70;;;;;;5032552;28;20407;-67
2022/08/12 10:52:01;;;;;;;6.60;1.20;;;29.60;96.90;;;;;;5033173;28;20273;-66
2022/08/12 10:54:27;;;;;;;4.18;0.88;;;31.00;98.10;;;;;;5050307;28;20052;-66
2022/08/12 10:56:59;;;;;;;2.35;0.90;;;29.70;96.50;;;;;;5039033;28;20041;-66
2022/08/12 10:59:28;;;;;;;4.03;1.15;;;30.00;96.20;;;;;;5053250;28;20052;-67
2022/08/12 11:01:55;;;;;;;6.63;1.33;;;29.90;95.70;;;;;;5055996;28;20037;-66
2022/08/12 11:04:21;;;;;;;3.78;1.00;;;29.40;96.60;;;;;;5055178;28;20045;-66
2022/08/12 11:06:47;;;;;;;3.42;0.82;;;30.60;96.90;;;;;;5052524;28;20398;-67
2022/08/12 11:09:16;;;;;;;3.40;0.95;;;29.90;96.80;;;;;;5056190;28;20037;-66
2022/08/12 11:11:43;;;;;;;6.05;1.25;;;30.30;96.00;;;;;;5055873;28;20036;-66
2022/08/12 11:14:08;;;;;;;4.47;0.98;;;29.60;95.90;;;;;;5056389;28;20043;-67
2022/08/12 11:16:34;;;;;;;8.63;1.30;;;29.60;96.00;;;;;;5055722;28;20036;-66
2022/08/12 11:19:00;;;;;;;4.88;1.33;;;29.30;95.70;;;;;;5053022;28;20087;-66
2022/08/12 11:21:25;;;;;;;3.50;0.70;;;29.50;96.60;;;;;;5051973;28;20048;-67
2022/08/12 11:23:51;;;;;;;2.40;0.80;;;29.50;96.60;;;;;;5035450;28;20049;-67
2022/08/12 11:26:16;;;;;;;5.03;1.20;;;29.80;96.50;;;;;;5032677;28;20033;-67
2022/08/12 11:28:42;;;;;;;4.88;1.10;;;29.60;96.50;;;;;;5031279;28;20129;-67
2022/08/12 11:31:08;;;;;;;2.13;1.10;;;29.50;95.80;;;;;;5044759;28;20042;-66
2022/08/12 11:33:34;;;;;;;5.93;1.10;;;29.70;95.40;;;;;;5030857;28;20365;-67
2022/08/12 11:36:04;;;;;;;3.10;1.00;;;31.20;95.80;;;;;;5030302;28;20437;-67
2022/08/12 11:38:30;;;;;;;2.67;1.00;;;29.90;94.90;;;;;;5032593;28;20407;-67
2022/08/12 11:40:56;;;;;;;5.10;1.05;;;29.80;95.90;;;;;;5030914;28;20049;-67
2022/08/12 11:43:21;;;;;;;4.22;1.10;;;31.10;96.90;;;;;;5032081;28;20526;-67
2022/08/12 11:45:47;;;;;;;5.82;1.27;;;31.50;96.20;;;;;;5034099;28;20049;-67
2022/08/12 11:48:13;;;;;;;3.75;1.02;;;31.50;96.30;;;;;;5030387;28;20033;-69
2022/08/12 11:50:42;;;;;;;4.53;1.15;;;29.90;95.90;;;;;;5032186;28;20041;-67
2022/08/12 11:53:07;;;;;;;2.95;0.95;;;29.80;95.80;;;;;;5031840;28;20499;-67
2022/08/12 11:55:33;;;;;;;1.95;1.00;;;30.30;95.80;;;;;;5030556;28;20136;-67
2022/08/12 11:57:58;;;;;;;3.65;1.00;;;31.10;95.90;;;;;;5030711;28;20057;-67
2022/08/12 12:00:25;;;;;;;2.05;0.90;;;31.60;95.10;;;;;;5031636;28;20488;-66
2022/08/12 12:02:50;;;;;;;3.13;0.98;;;29.90;94.90;;;;;;5031343;28;20491;-66
2022/08/12 12:05:16;;;;;;;1.25;0.80;;;30.10;94.20;;;;;;5031573;28;20053;-68
2022/08/12 12:07:43;;;;;;;1.73;0.70;;;30.00;93.60;;;;;;5031770;28;20087;-66
2022/08/12 12:10:10;;;;;;;2.35;0.73;;;29.70;94.50;;;;;;5034408;28;20487;-67
2022/08/12 12:12:36;;;;;;;2.83;0.90;;;30.00;93.40;;;;;;5049390;28;20334;-66
2022/08/12 12:15:03;;;;;;;1.80;0.82;;;30.30;94.20;;;;;;5044098;28;20063;-66
2022/08/12 12:17:29;;;;;;;3.00;0.80;;;29.90;93.60;;;;;;5031511;28;20038;-66
2022/08/12 12:19:54;;;;;;;2.22;0.60;;;30.90;94.20;;;;;;5034378;28;20044;-66
2022/08/12 12:22:20;;;;;;;4.43;0.90;;;30.00;94.30;;;;;;5034374;28;20037;-67
2022/08/12 12:24:47;;;;;;;3.88;0.70;;;31.10;94.80;;;;;;5031956;28;20045;-67
2022/08/12 12:27:16;;;;;;;3.60;0.60;;;30.60;93.50;;;;;;5030828;28;20041;-68
2022/08/12 12:29:41;;;;;;;2.95;0.90;;;31.30;93.90;;;;;;5044986;28;20041;-68
2022/08/12 12:32:07;;;;;;;2.85;0.77;;;29.80;94.20;;;;;;5050464;28;20080;-68
2022/08/12 12:34:32;;;;;;;2.33;0.85;;;30.20;94.70;;;;;;5049300;28;20045;-67
2022/08/12 12:36:58;;;;;;;3.97;0.70;;;30.90;94.90;;;;;;5047530;28;20037;-67
2022/08/12 12:39:24;;;;;;;4.13;0.73;;;31.70;94.90;;;;;;5047058;28;20042;-67
2022/08/12 12:41:49;;;;;;;2.30;0.70;;;30.10;94.00;;;;;;5050222;28;20123;-67
2022/08/12 12:44:15;;;;;;;3.20;0.50;;;31.60;94.00;;;;;;5049098;28;20098;-67
2022/08/12 12:46:40;;;;;;;4.38;1.00;;;30.00;93.70;;;;;;5048748;28;20037;-67
2022/08/12 12:49:06;;;;;;;1.58;0.57;;;30.00;93.70;;;;;;5050043;28;20151;-68
2022/08/12 12:51:31;;;;;;;4.60;0.82;;;30.00;94.10;;;;;;5050460;28;20174;-67
2022/08/12 12:53:57;;;;;;;2.90;0.88;;;29.80;93.50;;;;;;5050670;28;20130;-68
2022/08/12 12:56:23;;;;;;;4.43;1.25;;;30.60;93.70;;;;;;5049005;28;20044;-68
2022/08/12 12:58:50;;;;;;;6.35;1.58;;;30.00;92.80;;;;;;5048580;28;20071;-66
2022/08/12 13:01:24;;;;;;;2.85;0.60;;;30.20;93.20;;;;;;5036510;28;20045;-67
2022/08/12 13:03:55;;;;;;;4.50;0.60;;;29.90;93.30;;;;;;5032311;28;20049;-67
2022/08/12 13:06:24;;;;;;;1.95;0.80;;;31.20;92.80;;;;;;5048253;28;20037;-67
2022/08/12 13:08:53;;;;;;;3.00;0.80;;;30.30;92.10;;;;;;5050072;28;20033;-67
2022/08/12 13:11:20;;;;;;;2.45;0.70;;;30.10;91.40;;;;;;5049163;28;20178;-67
2022/08/12 13:13:48;;;;;;;1.80;1.00;;;31.00;93.60;;;;;;5049763;28;20076;-67
2022/08/12 13:16:19;;;;;;;4.60;1.10;;;30.20;93.30;;;;;;5049711;28;20040;-66
2022/08/12 13:18:46;;;;;;;3.00;0.68;;;30.00;93.40;;;;;;5049980;28;20052;-66
2022/08/12 13:21:12;;;;;;;4.57;0.98;;;30.20;92.80;;;;;;5047239;28;20041;-68
2022/08/12 13:23:38;;;;;;;5.53;1.25;;;30.10;92.90;;;;;;5048996;28;20142;-66
2022/08/12 13:26:04;;;;;;;2.47;1.00;;;30.30;92.80;;;;;;5048071;28;20079;-67
2022/08/12 13:28:30;;;;;;;1.73;0.98;;;30.60;92.80;;;;;;5048255;28;20290;-67
2022/08/12 13:30:58;;;;;;;3.42;0.68;;;30.40;92.70;;;;;;5046706;28;20036;-68
2022/08/12 13:33:25;;;;;;;2.17;0.80;;;31.60;93.30;;;;;;5047940;28;20090;-67
2022/08/12 13:35:59;;;;;;;1.60;0.80;;;32.00;93.60;;;;;;5045563;28;20501;-67
2022/08/12 13:38:37;;;;;;;2.25;1.10;;;30.50;92.40;;;;;;5049427;28;20346;-67
2022/08/12 13:41:04;;;;;;;2.45;0.90;;;31.30;92.80;;;;;;5045008;28;20094;-68
2022/08/12 13:43:31;;;;;;;5.03;0.90;;;30.30;92.70;;;;;;5049161;28;20511;-67
2022/08/12 13:45:58;;;;;;;3.65;1.15;;;30.10;92.70;;;;;;5047092;28;20029;-66
2022/08/12 13:48:23;;;;;;;4.75;0.70;;;30.50;92.00;;;;;;5048989;28;20029;-66
2022/08/12 13:50:49;;;;;;;2.70;1.15;;;30.90;92.10;;;;;;5049325;28;20044;-67
2022/08/12 13:53:17;;;;;;;3.72;0.80;;;31.80;93.20;;;;;;5048786;28;20033;-68
2022/08/12 13:55:44;;;;;;;5.20;2.30;;;31.50;92.30;;;;;;5048821;28;20041;-67
2022/08/12 13:58:19;;;;;;;2.55;1.00;;;31.30;93.00;;;;;;5048904;28;20060;-67
2022/08/12 14:00:50;;;;;;;3.67;0.80;;;30.50;92.60;;;;;;5048730;28;20083;-68
2022/08/12 14:03:17;;;;;;;4.45;1.02;;;30.30;93.10;;;;;;5048924;28;20109;-69
2022/08/12 14:05:42;;;;;;;3.38;0.90;;;31.50;92.90;;;;;;5049972;28;20048;-67
2022/08/12 14:08:10;;;;;;;4.20;1.00;;;30.40;92.90;;;;;;5051695;28;20060;-68
2022/08/12 14:10:48;;;;;;;2.63;0.95;;;32.00;92.60;;;;;;5041995;28;20522;-66
2022/08/12 14:13:16;;;;;;;3.63;1.23;;;31.50;93.50;;;;;;5047606;28;20033;-67
2022/08/12 14:15:47;;;;;;;5.32;1.17;;;31.70;93.20;;;;;;5045681;28;20426;-69
2022/08/12 14:18:24;;;;;;;1.98;1.05;;;31.80;93.30;;;;;;5044650;28;20044;-68
2022/08/12 14:20:59;;;;;;;5.88;1.20;;;30.30;92.10;;;;;;5048099;28;20037;-67
2022/08/12 14:23:26;;;;;;;2.88;0.90;;;31.60;93.70;;;;;;5043391;28;20037;-67
2022/08/12 14:25:54;;;;;;;3.85;1.15;;;31.40;93.20;;;;;;5050224;28;20484;-67
2022/08/12 14:28:22;;;;;;;4.85;1.10;;;30.40;92.90;;;;;;5050424;28;20036;-69
2022/08/12 14:30:52;;;;;;;4.88;1.00;;;30.50;93.00;;;;;;5047786;28;20090;-67
2022/08/12 14:33:20;;;;;;;4.13;1.00;;;31.60;93.40;;;;;;5051723;28;20402;-67
2022/08/12 14:35:48;;;;;;;2.80;1.08;;;31.80;93.10;;;;;;5051732;28;20119;-67
2022/08/12 14:38:20;;;;;;;7.07;1.30;;;30.50;92.60;;;;;;5052053;28;20155;-67
2022/08/12 14:40:51;;;;;;;4.82;1.05;;;32.00;93.30;;;;;;5050187;28;20504;-70
2022/08/12 14:43:18;;;;;;;3.30;1.08;;;32.20;93.60;;;;;;5051719;28;20045;-67